Time;durP1;ratioP1;P1;durP2;ratioP2;P2;SDS_P1;SDS_P2;PMS_P1;PMS_P2;Temp;Humidity;BMP_temperature;BMP_pressure;BME280_temperature;BME280_humidity;BME280_pressure;Samples;Min_cycle;Max_cycle;Signal;HPM_P1;HPM_P2
2022/07/24 00:00:06;;;;;;;28.25;15.13;;;;;;;19.18;98.47;101857.97;5054744;28;20473;-51
2022/07/24 00:02:31;;;;;;;26.58;16.40;;;;;;;19.16;98.01;101851.06;5055794;28;20028;-50
2022/07/24 00:04:57;;;;;;;28.15;15.68;;;;;;;19.15;98.74;101847.53;5056208;28;20097;-51
2022/07/24 00:07:22;;;;;;;24.13;16.67;;;;;;;19.18;98.09;101852.56;5056369;28;20028;-52
2022/07/24 00:09:48;;;;;;;27.33;16.83;;;;;;;19.15;97.70;101846.69;5056335;28;20019;-50
2022/07/24 00:12:13;;;;;;;28.25;17.35;;;;;;;19.15;98.58;101852.94;5054332;28;20086;-51
2022/07/24 00:14:38;;;;;;;23.83;17.00;;;;;;;19.11;98.42;101848.09;5054916;28;20016;-51
2022/07/24 00:17:04;;;;;;;32.58;17.48;;;;;;;19.10;98.52;101846.44;5056115;28;20160;-52
2022/07/24 00:19:29;;;;;;;27.20;17.75;;;;;;;19.07;99.10;101847.66;5055857;28;20016;-48
2022/07/24 00:21:57;;;;;;;30.08;17.20;;;;;;;19.07;99.46;101844.09;5056519;28;20485;-52
2022/07/24 00:24:22;;;;;;;29.48;17.83;;;;;;;19.07;100.00;101835.97;5055732;28;20020;-48
2022/07/24 00:26:47;;;;;;;27.17;17.67;;;;;;;19.06;99.81;101842.41;5056159;28;20036;-50
2022/07/24 00:29:12;;;;;;;23.75;17.27;;;;;;;18.99;99.12;101842.34;5054049;28;20103;-49
2022/07/24 00:31:38;;;;;;;27.63;17.48;;;;;;;18.98;99.88;101838.81;5056654;28;20035;-50
2022/07/24 00:34:03;;;;;;;28.48;17.73;;;;;;;18.97;100.00;101834.41;5054976;28;20021;-50
2022/07/24 00:36:28;;;;;;;27.27;17.55;;;;;;;18.92;98.86;101833.31;5056273;28;20025;-51
2022/07/24 00:38:54;;;;;;;26.83;17.38;;;;;;;18.94;99.53;101842.09;5055654;28;20082;-50
2022/07/24 00:41:19;;;;;;;26.52;18.05;;;;;;;18.92;98.94;101849.56;5046700;28;20025;-51
2022/07/24 00:43:59;;;;;;;31.17;17.95;;;;;;;18.91;98.52;101847.91;5053717;28;20228;-49
2022/07/24 00:46:25;;;;;;;29.17;17.60;;;;;;;18.85;99.27;101851.38;5055483;28;20024;-48
2022/07/24 00:48:50;;;;;;;27.23;17.65;;;;;;;18.85;99.41;101846.78;5055141;28;20027;-49
2022/07/24 00:51:15;;;;;;;26.45;17.30;;;;;;;18.85;100.00;101841.38;5055626;28;20008;-51
2022/07/24 00:53:41;;;;;;;27.38;17.08;;;;;;;18.85;99.78;101846.78;5055742;28;20379;-49
2022/07/24 00:56:06;;;;;;;25.50;16.55;;;;;;;18.82;100.00;101845.31;5056003;28;20078;-48
2022/07/24 00:58:32;;;;;;;28.85;16.38;;;;;;;18.82;99.58;101837.19;5054042;28;20351;-50
2022/07/24 01:00:57;;;;;;;25.20;15.77;;;;;;;18.85;99.64;101846.78;5055001;28;20032;-52
2022/07/24 01:03:22;;;;;;;32.22;17.15;;;;;;;18.80;99.17;101839.22;5054266;28;20130;-48
2022/07/24 01:05:48;;;;;;;27.00;16.58;;;;;;;18.81;99.60;101832.78;5055561;28;20414;-52
2022/07/24 01:08:13;;;;;;;25.52;16.70;;;;;;;18.81;99.44;101826.53;5055649;28;20028;-51
2022/07/24 01:10:39;;;;;;;26.45;16.33;;;;;;;18.79;99.89;101839.41;5055835;28;20024;-52
2022/07/24 01:13:04;;;;;;;23.70;16.23;;;;;;;18.77;100.00;101836.03;5054460;28;20025;-50
2022/07/24 01:15:30;;;;;;;23.98;16.70;;;;;;;18.73;100.00;101830.19;5054314;28;20704;-50
2022/07/24 01:17:55;;;;;;;26.92;16.85;;;;;;;18.72;100.00;101828.53;5055871;28;20028;-49
2022/07/24 01:20:20;;;;;;;27.42;17.05;;;;;;;18.66;100.00;101823.88;5053862;28;20037;-51
2022/07/24 01:22:45;;;;;;;29.60;17.13;;;;;;;18.65;100.00;101824.88;5056219;28;20103;-51
2022/07/24 01:25:11;;;;;;;25.90;16.65;;;;;;;18.63;100.00;101816.97;5054749;28;20270;-51
2022/07/24 01:27:36;;;;;;;26.65;17.40;;;;;;;18.61;100.00;101810.91;5055171;28;20093;-49
2022/07/24 01:30:02;;;;;;;28.63;17.08;;;;;;;18.55;99.64;101816.22;5053912;28;20025;-50
2022/07/24 01:32:28;;;;;;;28.00;17.30;;;;;;;18.53;100.00;101813.72;5055338;28;20028;-51
2022/07/24 01:34:53;;;;;;;24.67;16.73;;;;;;;18.49;100.00;101812.44;5054744;28;20020;-51
2022/07/24 01:37:18;;;;;;;24.33;16.17;;;;;;;18.40;100.00;101817.13;5053550;28;20055;-51
2022/07/24 01:39:44;;;;;;;26.15;15.75;;;;;;;18.32;100.00;101825.31;5055518;28;20115;-51
2022/07/24 01:42:09;;;;;;;27.02;16.33;;;;;;;18.26;100.00;101828.78;5053944;28;20035;-52
2022/07/24 01:44:34;;;;;;;30.23;17.60;;;;;;;18.10;100.00;101823.59;5053440;28;20005;-51
2022/07/24 01:47:00;;;;;;;26.02;16.67;;;;;;;18.02;100.00;101819.09;5054020;28;20028;-48
2022/07/24 01:49:25;;;;;;;29.02;17.17;;;;;;;17.91;100.00;101820.41;5069790;28;20056;-51
2022/07/24 01:51:50;;;;;;;26.58;17.08;;;;;;;17.77;100.00;101813.09;5055145;28;20013;-49
2022/07/24 01:54:15;;;;;;;27.35;17.50;;;;;;;17.75;100.00;101817.84;5052129;28;20028;-50
2022/07/24 01:56:41;;;;;;;29.83;17.73;;;;;;;17.74;100.00;101814.31;5054421;28;20024;-49
2022/07/24 01:59:06;;;;;;;31.05;17.13;;;;;;;17.72;100.00;101813.66;5052651;28;20343;-49
2022/07/24 02:01:31;;;;;;;26.35;17.58;;;;;;;17.65;100.00;101818.97;5052820;28;20078;-46
2022/07/24 02:03:57;;;;;;;27.70;16.60;;;;;;;17.69;100.00;101809.44;5044771;28;20039;-49
2022/07/24 02:06:22;;;;;;;30.45;16.75;;;;;;;17.63;100.00;101812.88;5054835;28;20712;-50
2022/07/24 02:08:48;;;;;;;25.98;16.85;;;;;;;17.61;100.00;101819.50;5054328;28;20848;-52
2022/07/24 02:11:13;;;;;;;24.95;16.92;;;;;;;17.60;100.00;101818.69;5053731;28;20016;-47
2022/07/24 02:13:38;;;;;;;23.80;16.02;;;;;;;17.58;100.00;101819.88;5052683;28;20066;-50
2022/07/24 02:16:04;;;;;;;22.10;15.73;;;;;;;17.50;100.00;101818.94;5054597;28;20391;-49
2022/07/24 02:18:29;;;;;;;27.52;16.10;;;;;;;17.56;100.00;101816.53;5053560;28;20047;-49
2022/07/24 02:20:54;;;;;;;28.25;16.15;;;;;;;17.56;100.00;101816.53;5054114;28;20035;-49
2022/07/24 02:23:20;;;;;;;24.05;16.13;;;;;;;17.58;100.00;101809.88;5054803;28;20032;-50
2022/07/24 02:25:46;;;;;;;21.85;15.80;;;;;;;17.64;100.00;101802.94;5053636;28;20025;-50
2022/07/24 02:28:12;;;;;;;34.30;16.02;;;;;;;17.64;100.00;101803.75;5053903;28;20402;-52
2022/07/24 02:30:37;;;;;;;28.80;15.43;;;;;;;17.66;100.00;101796.31;5053041;28;20027;-52
2022/07/24 02:33:02;;;;;;;21.60;15.65;;;;;;;17.67;100.00;101800.69;5054732;28;20404;-52
2022/07/24 02:35:28;;;;;;;27.85;15.88;;;;;;;17.69;100.00;101808.63;5054534;28;20035;-51
2022/07/24 02:37:53;;;;;;;21.73;15.98;;;;;;;17.73;100.00;101809.91;5052959;28;20571;-52
2022/07/24 02:40:18;;;;;;;24.50;15.63;;;;;;;17.65;100.00;101810.00;5050097;28;20040;-48
2022/07/24 02:42:43;;;;;;;22.73;15.52;;;;;;;17.63;100.00;101812.06;5050397;28;20037;-54
2022/07/24 02:45:10;;;;;;;21.38;15.48;;;;;;;17.62;100.00;101813.91;5052412;28;20021;-51
2022/07/24 02:47:45;;;;;;;20.95;15.20;;;;;;;17.53;100.00;101812.31;5054584;28;20487;-50
2022/07/24 02:50:10;;;;;;;22.17;15.40;;;;;;;17.47;100.00;101808.50;5053604;28;20479;-50
2022/07/24 02:52:35;;;;;;;22.63;14.75;;;;;;;17.44;100.00;101818.81;5053972;28;20311;-48
2022/07/24 02:55:01;;;;;;;25.35;15.52;;;;;;;17.40;100.00;101812.94;5053889;28;20076;-51
2022/07/24 02:57:26;;;;;;;24.95;15.93;;;;;;;17.35;100.00;101812.66;5052823;28;20044;-51
2022/07/24 02:59:52;;;;;;;25.55;15.65;;;;;;;17.29;100.00;101802.56;5052347;28;20028;-51
2022/07/24 03:02:17;;;;;;;25.67;16.45;;;;;;;17.20;100.00;101803.69;5054512;28;20483;-50
2022/07/24 03:04:43;;;;;;;26.35;16.88;;;;;;;17.14;100.00;101814.19;5054077;28;20103;-50
2022/07/24 03:07:08;;;;;;;30.42;17.48;;;;;;;17.09;100.00;101815.72;5054381;28;20025;-53
2022/07/24 03:09:34;;;;;;;23.52;16.73;;;;;;;17.02;100.00;101810.19;5053918;28;20017;-50
2022/07/24 03:11:59;;;;;;;30.58;17.48;;;;;;;16.94;100.00;101808.41;5052827;28;20046;-51
2022/07/24 03:14:24;;;;;;;28.02;17.38;;;;;;;16.93;100.00;101803.19;5044049;28;20029;-51
2022/07/24 03:16:49;;;;;;;27.30;17.98;;;;;;;16.90;100.00;101800.84;5054470;28;20050;-50
2022/07/24 03:19:15;;;;;;;28.00;18.13;;;;;;;16.91;100.00;101802.53;5053665;28;20236;-51
2022/07/24 03:21:40;;;;;;;32.72;18.48;;;;;;;16.89;100.00;101801.91;5054763;28;20535;-51
2022/07/24 03:24:05;;;;;;;30.52;18.73;;;;;;;16.89;100.00;101799.19;5053225;28;20111;-50
2022/07/24 03:26:30;;;;;;;28.15;19.65;;;;;;;16.84;100.00;101796.16;5056001;28;20036;-50
2022/07/24 03:28:56;;;;;;;31.10;19.90;;;;;;;16.79;100.00;101797.53;5054976;28;20115;-50
2022/07/24 03:31:21;;;;;;;35.30;21.02;;;;;;;16.85;100.00;101789.75;5057014;28;20457;-47
2022/07/24 03:33:46;;;;;;;35.38;21.52;;;;;;;16.87;100.00;101793.97;5057442;28;20039;-51
2022/07/24 03:36:11;;;;;;;33.88;21.25;;;;;;;16.85;100.00;101795.16;5056929;28;20094;-50
2022/07/24 03:38:37;;;;;;;35.88;21.92;;;;;;;16.85;100.00;101797.84;5057486;28;20418;-48
2022/07/24 03:41:02;;;;;;;34.83;21.67;;;;;;;16.84;100.00;101798.88;5056583;28;20075;-51
2022/07/24 03:43:27;;;;;;;31.50;21.80;;;;;;;16.79;100.00;101796.69;5055318;28;20032;-50
2022/07/24 03:45:52;;;;;;;33.45;20.95;;;;;;;16.79;100.00;101796.69;5056143;28;20028;-50
2022/07/24 03:48:18;;;;;;;37.22;21.20;;;;;;;16.85;100.00;101798.69;5057011;28;20039;-52
2022/07/24 03:50:43;;;;;;;31.40;19.95;;;;;;;16.88;100.00;101792.09;5057481;28;20024;-55
2022/07/24 03:53:08;;;;;;;33.17;20.75;;;;;;;16.92;100.00;101790.72;5056882;28;20028;-48
2022/07/24 03:55:34;;;;;;;31.55;20.50;;;;;;;16.90;100.00;101792.75;5056867;28;20032;-50
2022/07/24 03:57:59;;;;;;;38.13;22.17;;;;;;;16.85;100.00;101793.28;5056506;28;20052;-49
2022/07/24 04:00:24;;;;;;;32.20;21.42;;;;;;;16.85;100.00;101782.50;5053560;28;20096;-50
2022/07/24 04:02:50;;;;;;;37.47;22.40;;;;;;;16.85;100.00;101781.66;5044949;28;20025;-51
2022/07/24 04:05:15;;;;;;;37.70;21.80;;;;;;;16.88;100.00;101787.53;5056048;28;20193;-48
2022/07/24 04:07:40;;;;;;;37.60;22.52;;;;;;;16.90;100.00;101790.06;5057361;28;20032;-50
2022/07/24 04:10:07;;;;;;;33.38;21.70;;;;;;;16.95;100.00;101788.53;5056255;28;20108;-49
2022/07/24 04:12:33;;;;;;;34.53;21.65;;;;;;;16.98;100.00;101794.56;5056587;28;20039;-49
2022/07/24 04:14:59;;;;;;;34.25;22.60;;;;;;;17.02;100.00;101779.69;5055427;28;20024;-51
2022/07/24 04:17:24;;;;;;;34.78;22.08;;;;;;;17.03;100.00;101781.38;5055821;28;20062;-49
2022/07/24 04:19:50;;;;;;;37.13;23.00;;;;;;;16.99;100.00;101782.75;5056422;28;20282;-51
2022/07/24 04:22:15;;;;;;;35.22;22.63;;;;;;;16.89;100.00;101781.13;5056578;28;20024;-48
2022/07/24 04:24:40;;;;;;;42.53;23.90;;;;;;;16.84;100.00;101796.16;5056524;28;20103;-48
2022/07/24 04:27:05;;;;;;;42.88;25.42;;;;;;;16.78;100.00;101792.31;5055639;28;20109;-49
2022/07/24 04:29:31;;;;;;;40.33;23.55;;;;;;;16.76;100.00;101800.56;5054909;28;20020;-51
2022/07/24 04:31:56;;;;;;;43.78;25.73;;;;;;;16.81;100.00;101799.22;5055293;28;20035;-48
2022/07/24 04:34:21;;;;;;;40.33;25.48;;;;;;;16.78;100.00;101795.88;5052883;28;20460;-50
2022/07/24 04:36:47;;;;;;;43.13;25.98;;;;;;;16.76;100.00;101805.13;5054597;28;20025;-51
2022/07/24 04:39:12;;;;;;;49.60;27.90;;;;;;;16.72;100.00;101801.13;5055847;28;20089;-49
2022/07/24 04:41:37;;;;;;;48.88;26.55;;;;;;;16.70;100.00;101806.69;5048606;28;20020;-49
2022/07/24 04:44:03;;;;;;;47.95;28.58;;;;;;;16.66;100.00;101807.22;5054512;28;20390;-49
2022/07/24 04:46:28;;;;;;;47.30;29.50;;;;;;;16.68;100.00;101806.00;5054702;28;20528;-47
2022/07/24 04:48:54;;;;;;;49.85;28.77;;;;;;;16.67;100.00;101814.31;5055922;28;20028;-50
2022/07/24 04:51:19;;;;;;;50.95;30.02;;;;;;;16.68;100.00;101811.41;5054470;28;20016;-46
2022/07/24 04:53:44;;;;;;;48.00;30.13;;;;;;;16.69;100.00;101810.41;5055753;28;20044;-47
2022/07/24 04:56:10;;;;;;;53.80;31.00;;;;;;;16.70;100.00;101809.41;5053430;28;20090;-49
2022/07/24 04:58:35;;;;;;;54.15;30.23;;;;;;;16.72;100.00;101804.66;5054397;28;20481;-47
2022/07/24 05:01:00;;;;;;;57.65;31.70;;;;;;;16.74;100.00;101801.78;5055985;28;20031;-47
2022/07/24 05:03:26;;;;;;;55.72;32.80;;;;;;;16.75;100.00;101796.22;5053658;28;20107;-48
2022/07/24 05:05:51;;;;;;;61.05;34.58;;;;;;;16.81;100.00;101799.22;5055686;28;20025;-50
2022/07/24 05:08:16;;;;;;;64.32;33.28;;;;;;;16.86;100.00;101800.38;5054744;28;20035;-51
2022/07/24 05:10:42;;;;;;;64.15;32.60;;;;;;;16.91;100.00;101797.16;5054765;28;20071;-47
2022/07/24 05:13:07;;;;;;;61.50;33.97;;;;;;;16.95;100.00;101795.75;5054859;28;20133;-51
2022/07/24 05:15:32;;;;;;;58.47;33.75;;;;;;;17.00;100.00;101790.66;5054180;28;20412;-50
2022/07/24 05:17:58;;;;;;;67.32;34.25;;;;;;;17.03;100.00;101794.88;5055775;28;20254;-49
2022/07/24 05:20:23;;;;;;;59.45;33.53;;;;;;;17.08;100.00;101793.31;5054755;28;20136;-51
2022/07/24 05:22:48;;;;;;;69.35;34.53;;;;;;;17.13;100.00;101795.47;5055276;28;20029;-51
2022/07/24 05:25:14;;;;;;;64.85;35.45;;;;;;;17.17;100.00;101812.13;5054230;28;20463;-51
2022/07/24 05:27:39;;;;;;;54.10;34.00;;;;;;;17.18;100.00;101814.66;5054244;28;20035;-49
2022/07/24 05:30:05;;;;;;;70.20;34.55;;;;;;;17.20;100.00;101812.59;5053335;28;20035;-49
2022/07/24 05:32:31;;;;;;;73.03;36.20;;;;;;;17.25;100.00;101812.06;5055570;28;20115;-49
2022/07/24 05:34:56;;;;;;;63.05;35.70;;;;;;;17.26;100.00;101819.13;5054747;28;20103;-47
2022/07/24 05:37:22;;;;;;;68.60;37.22;;;;;;;17.28;100.00;101817.94;5055314;28;20046;-46
2022/07/24 05:39:47;;;;;;;62.50;36.50;;;;;;;17.33;100.00;101820.94;5055035;28;20196;-51
2022/07/24 05:42:12;;;;;;;67.07;38.15;;;;;;;17.38;100.00;101820.41;5053038;28;20058;-48
2022/07/24 05:44:38;;;;;;;76.47;38.20;;;;;;;17.40;100.00;101818.34;5053277;28;20436;-49
2022/07/24 05:47:04;;;;;;;67.20;37.78;;;;;;;17.47;100.00;101824.69;5054798;28;20031;-51
2022/07/24 05:49:29;;;;;;;65.60;37.05;;;;;;;17.51;100.00;101830.56;5055350;28;20025;-51
2022/07/24 05:51:55;;;;;;;71.97;38.78;;;;;;;17.55;100.00;101829.19;5054933;28;20490;-50
2022/07/24 05:54:20;;;;;;;68.53;37.53;;;;;;;17.55;100.00;101823.78;5054313;28;20028;-50
2022/07/24 05:56:45;;;;;;;69.03;38.42;;;;;;;17.62;100.00;101826.59;5054422;28;20138;-50
2022/07/24 05:59:11;;;;;;;67.55;37.67;;;;;;;17.65;100.00;101828.91;5051723;28;20039;-49
2022/07/24 06:01:36;;;;;;;67.78;37.15;;;;;;;17.69;100.00;101824.84;5054843;28;20108;-51
2022/07/24 06:04:01;;;;;;;69.70;36.75;;;;;;;17.78;100.00;101828.28;5054800;28;20028;-51
2022/07/24 06:06:27;;;;;;;68.25;37.08;;;;;;;17.85;100.00;101832.78;5054625;28;21322;-50
2022/07/24 06:08:52;;;;;;;69.05;38.28;;;;;;;17.93;100.00;101828.34;5054533;28;20025;-48
2022/07/24 06:11:17;;;;;;;72.50;36.85;;;;;;;18.02;100.00;101827.22;5053493;28;20234;-49
2022/07/24 06:13:43;;;;;;;73.28;36.63;;;;;;;18.14;100.00;101830.28;5053288;28;20492;-48
2022/07/24 06:16:09;;;;;;;65.57;36.10;;;;;;;18.29;100.00;101832.97;5053586;28;20029;-49
2022/07/24 06:18:34;;;;;;;68.45;37.97;;;;;;;18.39;100.00;101828.13;5054146;28;20463;-49
2022/07/24 06:21:00;;;;;;;66.30;36.20;;;;;;;18.47;100.00;101825.31;5055093;28;20025;-50
2022/07/24 06:23:25;;;;;;;65.20;34.85;;;;;;;18.58;100.00;101832.09;5053835;28;20424;-49
2022/07/24 06:25:50;;;;;;;64.32;35.25;;;;;;;18.76;100.00;101834.38;5053659;28;20647;-48
2022/07/24 06:28:16;;;;;;;58.55;33.85;;;;;;;18.89;100.00;101836.41;5054150;28;20269;-50
2022/07/24 06:30:41;;;;;;;55.38;32.35;;;;;;;18.99;100.00;101832.38;5052554;28;20020;-49
2022/07/24 06:33:06;;;;;;;59.50;32.50;;;;;;;19.05;100.00;101833.47;5052814;28;20058;-50
2022/07/24 06:35:32;;;;;;;56.38;32.10;;;;;;;19.14;100.00;101840.41;5053583;28;20320;-47
2022/07/24 06:38:00;;;;;;;53.25;29.85;;;;;;;19.22;100.00;101834.03;5054762;28;20017;-49
2022/07/24 06:40:26;;;;;;;51.05;29.38;;;;;;;19.32;100.00;101831.00;5048347;28;20243;-47
2022/07/24 06:42:51;;;;;;;52.35;30.30;;;;;;;19.42;100.00;101836.09;5050636;28;20050;-49
2022/07/24 06:45:16;;;;;;;44.53;27.58;;;;;;;19.47;100.00;101830.94;5052330;28;20212;-49
2022/07/24 06:47:42;;;;;;;46.10;27.83;;;;;;;19.51;100.00;101832.22;5054350;28;20064;-46
2022/07/24 06:50:09;;;;;;;44.70;27.90;;;;;;;19.61;100.00;101831.88;5052383;28;20782;-46
2022/07/24 06:52:34;;;;;;;43.38;26.35;;;;;;;19.72;100.00;101832.16;5054161;28;20020;-48
2022/07/24 06:54:59;;;;;;;42.25;26.60;;;;;;;19.84;100.00;101821.66;5054366;28;20547;-49
2022/07/24 06:57:25;;;;;;;42.30;24.67;;;;;;;19.97;100.00;101822.75;5052742;28;20076;-49
2022/07/24 06:59:52;;;;;;;44.08;24.63;;;;;;;20.10;100.00;101825.53;5052590;28;20108;-50
2022/07/24 07:02:17;;;;;;;41.17;24.10;;;;;;;20.18;100.00;101821.81;5056432;28;20024;-49
2022/07/24 07:04:43;;;;;;;32.80;20.30;;;;;;;20.20;97.77;101823.31;5057594;28;20090;-49
2022/07/24 07:07:08;;;;;;;32.42;19.90;;;;;;;20.30;98.57;101812.91;5057110;28;20024;-51
2022/07/24 07:09:35;;;;;;;30.88;18.98;;;;;;;20.44;96.48;101819.22;5055839;28;20098;-50
2022/07/24 07:12:01;;;;;;;33.72;18.38;;;;;;;20.58;96.66;101827.41;5057445;28;20163;-49
2022/07/24 07:14:26;;;;;;;32.88;16.50;;;;;;;20.73;92.97;101825.41;5046663;28;20483;-48
2022/07/24 07:16:51;;;;;;;25.35;15.73;;;;;;;20.81;90.25;101829.81;5058032;28;20032;-49
2022/07/24 07:19:16;;;;;;;24.77;16.83;;;;;;;20.90;90.28;101838.63;5057186;28;20035;-49
2022/07/24 07:21:42;;;;;;;21.70;13.93;;;;;;;21.03;90.58;101835.91;5057905;28;20467;-47
2022/07/24 07:24:07;;;;;;;23.75;15.98;;;;;;;21.15;90.34;101850.56;5056189;28;20027;-51
2022/07/24 07:26:32;;;;;;;25.27;16.00;;;;;;;21.31;89.75;101835.72;5055529;28;20025;-47
2022/07/24 07:28:58;;;;;;;28.75;15.50;;;;;;;21.36;87.47;101835.09;5056047;28;20489;-51
2022/07/24 07:31:24;;;;;;;32.20;15.93;;;;;;;21.37;85.73;101834.91;5047293;28;20028;-49
2022/07/24 07:33:50;;;;;;;21.08;14.38;;;;;;;21.43;84.79;101833.22;5056713;28;20435;-50
2022/07/24 07:36:15;;;;;;;23.00;14.40;;;;;;;21.55;83.67;101836.16;5057912;28;20279;-47
2022/07/24 07:38:40;;;;;;;24.20;13.68;;;;;;;21.60;83.63;101833.66;5056467;28;20029;-49
2022/07/24 07:41:06;;;;;;;20.13;11.65;;;;;;;21.69;81.74;101837.00;5055824;28;20037;-51
2022/07/24 07:43:31;;;;;;;18.55;11.32;;;;;;;21.83;81.53;101840.56;5056476;28;20036;-49
2022/07/24 07:45:57;;;;;;;17.73;11.63;;;;;;;21.91;80.76;101832.13;5056439;28;20024;-49
2022/07/24 07:48:22;;;;;;;17.23;10.20;;;;;;;21.98;78.69;101833.00;5056765;28;20020;-48
2022/07/24 07:50:48;;;;;;;13.73;10.23;;;;;;;22.11;77.96;101834.81;5057432;28;20016;-50
2022/07/24 07:53:13;;;;;;;16.00;10.48;;;;;;;22.24;78.43;101833.94;5057177;28;20557;-49
2022/07/24 07:55:39;;;;;;;16.20;9.43;;;;;;;22.43;78.85;101824.88;5055211;28;20039;-48
2022/07/24 07:58:05;;;;;;;12.52;8.23;;;;;;;22.51;77.29;101823.81;5056431;28;20131;-49
2022/07/24 08:00:30;;;;;;;12.52;7.55;;;;;;;22.41;75.17;101832.44;5055344;28;20082;-47
2022/07/24 08:02:56;;;;;;;10.98;6.68;;;;;;;22.37;73.56;101820.31;5044613;28;20459;-50
2022/07/24 08:05:21;;;;;;;9.90;6.88;;;;;;;22.30;72.97;101819.50;5056537;28;20483;-49
2022/07/24 08:07:46;;;;;;;15.07;6.90;;;;;;;22.38;72.81;101821.97;5057094;28;20016;-48
2022/07/24 08:10:12;;;;;;;10.65;5.88;;;;;;;22.51;73.90;101818.38;5056181;28;20016;-50
2022/07/24 08:12:38;;;;;;;11.07;6.45;;;;;;;22.63;73.14;101819.34;5053992;28;20473;-46
2022/07/24 08:15:04;;;;;;;9.18;6.35;;;;;;;22.79;73.75;101826.16;5054424;28;20044;-47
2022/07/24 08:17:29;;;;;;;10.15;6.30;;;;;;;22.95;73.08;101824.81;5057469;28;20100;-48
2022/07/24 08:19:54;;;;;;;11.75;6.00;;;;;;;23.11;73.48;101825.38;5056390;28;20312;-48
2022/07/24 08:22:20;;;;;;;10.95;6.00;;;;;;;23.23;71.48;101827.13;5055011;28;20031;-49
2022/07/24 08:24:45;;;;;;;9.73;5.60;;;;;;;23.16;69.49;101831.00;5056267;28;20038;-47
2022/07/24 08:27:10;;;;;;;7.40;5.20;;;;;;;23.14;70.24;101827.66;5055748;28;20039;-47
2022/07/24 08:29:36;;;;;;;9.88;5.00;;;;;;;23.33;72.54;101837.56;5054499;28;20051;-48
2022/07/24 08:32:01;;;;;;;10.50;5.00;;;;;;;23.49;70.49;101835.31;5056114;28;20028;-47
2022/07/24 08:34:26;;;;;;;8.18;5.07;;;;;;;23.62;70.99;101836.03;5055838;28;20021;-50
2022/07/24 08:36:51;;;;;;;6.45;5.10;;;;;;;23.78;68.25;101829.19;5055165;28;20490;-48
2022/07/24 08:39:17;;;;;;;6.78;4.72;;;;;;;23.87;68.82;101828.94;5056265;28;20020;-48
2022/07/24 08:41:43;;;;;;;7.68;5.00;;;;;;;23.93;68.46;101822.53;5049037;28;20115;-49
2022/07/24 08:44:10;;;;;;;8.63;4.10;;;;;;;23.91;68.02;101825.50;5054090;28;20231;-51
2022/07/24 08:46:41;;;;;;;6.40;4.10;;;;;;;23.97;68.83;101824.59;5056023;28;20069;-51
2022/07/24 08:49:10;;;;;;;5.78;4.15;;;;;;;24.05;67.44;101822.63;5055732;28;20035;-51
2022/07/24 08:51:38;;;;;;;5.15;3.90;;;;;;;24.21;70.42;101816.56;5042343;28;20107;-52
2022/07/24 08:54:03;;;;;;;7.43;4.03;;;;;;;24.33;69.18;101820.19;5056373;28;20558;-52
2022/07/24 08:56:30;;;;;;;5.43;3.85;;;;;;;24.40;68.52;101820.09;5053678;28;20292;-48
2022/07/24 08:58:55;;;;;;;6.55;3.88;;;;;;;24.52;70.24;101818.25;5055094;28;20137;-50
2022/07/24 09:01:21;;;;;;;6.53;3.75;;;;;;;24.46;65.02;101818.38;5054365;28;20122;-48
2022/07/24 09:03:47;;;;;;;11.38;3.63;;;;;;;24.42;65.19;101823.44;5056198;28;20115;-49
2022/07/24 09:06:14;;;;;;;6.72;3.65;;;;;;;24.47;67.12;101812.66;5055796;28;20535;-51
2022/07/24 09:08:40;;;;;;;4.95;3.40;;;;;;;24.64;67.45;101815.59;5055998;28;20013;-51
2022/07/24 09:11:06;;;;;;;4.85;3.35;;;;;;;24.58;65.97;101814.63;5054558;28;20055;-51
2022/07/24 09:16:22;;;;;;;5.15;3.70;;;;;;;24.82;66.14;101808.44;5056054;28;20412;-50
2022/07/24 09:18:50;;;;;;;6.60;4.50;;;;;;;24.99;64.89;101800.41;5055694;28;20113;-50
2022/07/24 09:21:17;;;;;;;6.85;3.92;;;;;;;25.02;63.77;101798.03;5055385;28;20016;-52
2022/07/24 09:23:44;;;;;;;5.90;3.88;;;;;;;25.10;63.56;101802.31;5054759;28;20115;-49
2022/07/24 09:26:10;;;;;;;5.32;3.58;;;;;;;25.10;64.11;101800.44;5054232;28;20510;-51
2022/07/24 09:29:02;;;;;;;7.10;3.67;;;;;;;25.08;62.89;101804.44;5053712;28;20016;-49
2022/07/24 09:31:27;;;;;;;5.22;3.80;;;;;;;25.04;62.81;101795.88;5053171;28;20043;-49
2022/07/24 09:33:52;;;;;;;5.05;3.63;;;;;;;25.19;64.05;101789.97;5054798;28;20971;-49
2022/07/24 09:36:19;;;;;;;9.02;3.63;;;;;;;25.26;63.36;101787.97;5055169;28;20059;-50
2022/07/24 09:38:49;;;;;;;5.95;4.03;;;;;;;25.21;64.50;101787.00;5054653;28;20024;-50
2022/07/24 09:41:22;;;;;;;7.35;3.75;;;;;;;25.25;65.44;101789.00;5052576;28;20031;-52
2022/07/24 09:44:01;;;;;;;10.80;3.70;;;;;;;25.23;65.06;101790.31;5053751;28;20157;-51
2022/07/24 09:46:27;;;;;;;6.28;4.00;;;;;;;25.20;64.50;101785.31;5055086;28;20070;-52
2022/07/24 09:48:58;;;;;;;7.10;4.00;;;;;;;25.33;64.74;101789.78;5054005;28;20437;-51
2022/07/24 09:51:25;;;;;;;4.68;3.85;;;;;;;25.52;64.31;101785.03;5054978;28;20583;-51
2022/07/24 09:53:57;;;;;;;8.57;3.67;;;;;;;25.73;64.86;101781.69;5054264;28;20127;-52
2022/07/24 09:56:23;;;;;;;6.00;3.60;;;;;;;25.92;61.62;101778.75;5053964;28;20016;-52
2022/07/24 09:58:54;;;;;;;4.72;2.97;;;;;;;25.92;59.90;101773.28;5052800;28;20590;-52
2022/07/24 10:01:22;;;;;;;4.90;3.42;;;;;;;25.87;61.36;101760.34;5052179;28;20085;-51
2022/07/24 10:03:51;;;;;;;8.40;3.50;;;;;;;25.90;62.06;101769.97;5043683;28;20068;-50
2022/07/24 10:06:19;;;;;;;5.20;3.67;;;;;;;25.96;62.78;101769.88;5054667;28;20087;-50
2022/07/24 10:08:46;;;;;;;4.45;3.47;;;;;;;26.17;61.15;101770.28;5054905;28;20076;-52
2022/07/24 10:11:13;;;;;;;6.53;3.45;;;;;;;26.32;61.81;101756.88;5053754;28;20322;-50
2022/07/24 10:13:39;;;;;;;5.10;3.05;;;;;;;26.39;62.32;101757.59;5053439;28;20791;-49
2022/07/24 10:16:13;;;;;;;7.93;3.55;;;;;;;26.67;61.58;101755.09;5053039;28;20420;-50
2022/07/24 10:18:55;;;;;;;4.50;3.42;;;;;;;26.74;60.30;101761.25;5052388;28;20311;-50
2022/07/24 10:21:32;;;;;;;4.30;3.45;;;;;;;26.70;57.70;101765.56;5054735;28;20035;-51
2022/07/24 10:24:06;;;;;;;4.85;3.28;;;;;;;26.52;57.75;101761.91;5053343;28;20270;-50
2022/07/24 10:26:50;;;;;;;8.90;3.50;;;;;;;26.54;58.98;101757.03;5054668;28;20017;-51
2022/07/24 10:29:17;;;;;;;4.82;3.28;;;;;;;26.38;56.89;101755.91;5052626;28;20043;-53
2022/07/24 10:31:48;;;;;;;4.13;3.10;;;;;;;26.38;57.79;101752.34;5054889;28;20491;-50
2022/07/24 10:34:31;;;;;;;6.28;3.42;;;;;;;26.65;58.56;101755.34;5052797;28;20024;-48
2022/07/24 10:37:24;;;;;;;3.72;3.00;;;;;;;27.02;59.57;101757.63;5054748;28;20039;-51
2022/07/24 10:39:49;;;;;;;6.35;3.20;;;;;;;27.26;52.75;101751.97;5040549;28;20021;-54
2022/07/24 10:42:14;;;;;;;5.13;3.00;;;;;;;27.35;53.17;101759.50;5047495;28;20051;-51
2022/07/24 10:44:40;;;;;;;5.93;2.85;;;;;;;27.35;52.61;101751.28;5052248;28;20109;-51
2022/07/24 10:47:13;;;;;;;6.43;3.40;;;;;;;27.49;53.98;101754.50;5054499;28;20031;-52
2022/07/24 10:49:42;;;;;;;6.13;2.90;;;;;;;27.51;54.91;101752.34;5054403;28;20028;-49
2022/07/24 10:52:41;;;;;;;6.13;2.90;;;;;;;27.64;52.89;101747.56;5053810;28;20016;-53
2022/07/24 10:55:32;;;;;;;8.50;2.90;;;;;;;27.71;52.91;101737.22;5035534;28;20112;-51
2022/07/24 10:58:00;;;;;;;6.78;2.83;;;;;;;27.80;51.71;101737.63;5052822;28;20503;-48
2022/07/24 11:00:31;;;;;;;5.18;3.00;;;;;;;27.77;50.92;101738.13;5051695;28;20040;-49
2022/07/24 11:02:59;;;;;;;4.25;2.67;;;;;;;28.00;51.28;101742.56;5055004;28;20024;-53
2022/07/24 11:05:26;;;;;;;7.78;3.10;;;;;;;28.02;49.28;101741.22;5053163;28;20606;-52
2022/07/24 11:08:19;;;;;;;3.45;2.80;;;;;;;28.15;52.25;101733.69;5054405;28;20029;-50